Time;durP1;ratioP1;P1;durP2;ratioP2;P2;SDS_P1;SDS_P2;PMS_P1;PMS_P2;Temp;Humidity;BMP_temperature;BMP_pressure;BME280_temperature;BME280_humidity;BME280_pressure;Samples;Min_cycle;Max_cycle;Signal;HPM_P1;HPM_P2
2022/12/09 00:01:30;;;;;;;77.83;44.23;;;-1.10;18.30;;;;;;5071943;28;20413;-69
2022/12/09 00:03:57;;;;;;;73.37;37.77;;;-1.10;18.30;;;;;;5071944;28;20180;-67
2022/12/09 00:06:25;;;;;;;81.20;55.45;;;-1.10;17.90;;;;;;5071913;28;20197;-67
2022/12/09 00:08:51;;;;;;;81.60;55.88;;;-1.10;17.70;;;;;;5087484;28;20270;-67
2022/12/09 00:11:18;;;;;;;77.78;50.03;;;-1.20;17.80;;;;;;5071881;28;20174;-68
2022/12/09 00:13:51;;;;;;;77.72;46.17;;;-1.10;17.40;;;;;;5071750;28;20188;-67
2022/12/09 00:16:17;;;;;;;74.20;45.20;;;-1.20;17.60;;;;;;5072021;28;20223;-68
2022/12/09 00:18:43;;;;;;;77.37;37.50;;;-1.20;17.90;;;;;;5071813;28;20268;-68
2022/12/09 00:21:15;;;;;;;77.45;52.08;;;-1.20;17.90;;;;;;5072020;28;20415;-68
2022/12/09 00:23:41;;;;;;;75.15;39.10;;;-1.20;18.20;;;;;;5071740;28;20174;-68
2022/12/09 00:26:07;;;;;;;76.95;46.55;;;-1.20;18.00;;;;;;5071623;28;20208;-68
2022/12/09 00:28:32;;;;;;;84.67;53.70;;;-1.20;18.10;;;;;;5071637;28;20177;-68
2022/12/09 00:31:00;;;;;;;76.93;45.67;;;-1.10;18.20;;;;;;5071672;28;20177;-68
2022/12/09 00:33:25;;;;;;;76.50;45.42;;;-1.20;18.50;;;;;;5087300;28;20556;-68
2022/12/09 00:35:51;;;;;;;74.57;39.13;;;-1.20;18.70;;;;;;5087361;28;20201;-68
2022/12/09 00:38:16;;;;;;;79.67;45.73;;;-1.10;18.60;;;;;;5071767;28;20197;-68
2022/12/09 00:40:42;;;;;;;87.87;62.93;;;-1.20;18.90;;;;;;5071801;28;20256;-68
2022/12/09 00:43:07;;;;;;;80.30;39.60;;;-1.20;19.20;;;;;;5087044;28;20204;-67
2022/12/09 00:45:33;;;;;;;79.10;51.13;;;-1.20;19.30;;;;;;5087142;28;20686;-67
2022/12/09 00:47:59;;;;;;;79.30;50.37;;;-1.20;19.20;;;;;;5072019;28;20647;-67
2022/12/09 00:50:24;;;;;;;79.03;56.17;;;-1.20;19.00;;;;;;5091430;28;20227;-67
2022/12/09 00:52:50;;;;;;;82.70;53.63;;;-1.10;18.90;;;;;;5075996;28;20174;-68
2022/12/09 00:55:15;;;;;;;81.97;46.00;;;-1.10;18.60;;;;;;5075791;28;20197;-67
2022/12/09 00:57:41;;;;;;;75.17;42.90;;;-1.30;19.00;;;;;;5075602;28;20179;-68
2022/12/09 01:00:07;;;;;;;80.30;50.70;;;-1.50;19.50;;;;;;5075832;28;20181;-68
2022/12/09 01:02:34;;;;;;;79.18;51.58;;;-1.50;20.10;;;;;;5075197;28;20200;-68
2022/12/09 01:04:59;;;;;;;78.68;46.17;;;-1.60;20.10;;;;;;5075432;28;20182;-68
2022/12/09 01:07:25;;;;;;;76.20;47.67;;;-1.70;20.00;;;;;;5075161;28;20204;-68
2022/12/09 01:09:50;;;;;;;81.80;56.50;;;-1.70;20.60;;;;;;5075139;28;20544;-68
2022/12/09 01:12:16;;;;;;;76.83;42.50;;;-1.90;21.10;;;;;;5075052;28;20179;-68
2022/12/09 01:14:41;;;;;;;75.23;45.63;;;-1.90;21.00;;;;;;5075137;28;20192;-69
2022/12/09 01:17:07;;;;;;;72.40;33.77;;;-1.90;20.90;;;;;;5074938;28;20232;-69
2022/12/09 01:19:33;;;;;;;78.17;45.73;;;-1.90;21.00;;;;;;5075154;28;20172;-69
2022/12/09 01:21:58;;;;;;;80.60;47.90;;;-2.00;21.20;;;;;;5074948;28;20172;-69
2022/12/09 01:24:24;;;;;;;74.17;35.17;;;-2.00;21.90;;;;;;5090669;28;20184;-69
2022/12/09 01:26:49;;;;;;;72.83;31.47;;;-2.00;21.80;;;;;;5074964;28;20454;-69
2022/12/09 01:29:15;;;;;;;72.67;35.30;;;-2.00;21.80;;;;;;5075050;28;20180;-69
2022/12/09 01:31:41;;;;;;;70.97;30.03;;;-2.10;22.00;;;;;;5074821;28;20178;-69
2022/12/09 01:34:06;;;;;;;73.80;39.47;;;-2.20;21.90;;;;;;5090569;28;20180;-69
2022/12/09 01:36:32;;;;;;;70.67;28.77;;;-2.20;21.90;;;;;;5073376;28;20219;-68
2022/12/09 01:38:59;;;;;;;72.13;34.53;;;-2.20;22.30;;;;;;5074794;28;20654;-69
2022/12/09 01:41:25;;;;;;;75.35;42.83;;;-2.30;22.40;;;;;;5074554;28;20242;-70
2022/12/09 01:44:11;;;;;;;74.03;32.33;;;-2.30;22.20;;;;;;5074686;28;20180;-69
2022/12/09 01:46:37;;;;;;;69.43;26.52;;;-2.40;23.10;;;;;;5074345;28;20243;-69
2022/12/09 01:49:05;;;;;;;78.00;36.17;;;-2.50;23.60;;;;;;5074898;28;20650;-68
2022/12/09 01:51:31;;;;;;;70.65;33.97;;;-2.60;23.60;;;;;;5074485;28;20178;-68
2022/12/09 01:53:57;;;;;;;78.43;46.40;;;-2.70;23.50;;;;;;5074407;28;20176;-68
2022/12/09 01:56:27;;;;;;;73.33;37.77;;;-2.70;23.90;;;;;;5073896;28;20228;-68
2022/12/09 01:58:53;;;;;;;72.20;30.98;;;-2.60;24.40;;;;;;5074062;28;20403;-69
2022/12/09 02:01:20;;;;;;;78.25;39.90;;;-2.70;24.10;;;;;;5074086;28;20653;-68
2022/12/09 02:03:46;;;;;;;73.47;30.55;;;-2.70;24.10;;;;;;5074028;28;20180;-68
2022/12/09 02:06:12;;;;;;;76.18;38.95;;;-2.80;24.30;;;;;;5074171;28;20192;-68
2022/12/09 02:08:38;;;;;;;80.18;40.92;;;-2.80;25.70;;;;;;5075131;28;20718;-68
2022/12/09 02:11:14;;;;;;;78.00;38.73;;;-2.80;25.30;;;;;;5090245;28;20192;-68
2022/12/09 02:14:24;;;;;;;85.05;46.38;;;-2.80;25.60;;;;;;5089335;28;20176;-68
2022/12/09 02:17:05;;;;;;;80.47;32.75;;;-2.80;25.90;;;;;;5068879;28;20220;-68
2022/12/09 02:19:48;;;;;;;80.03;32.13;;;-2.80;25.20;;;;;;5073659;28;20254;-68
2022/12/09 02:22:19;;;;;;;70.88;32.25;;;-2.90;25.50;;;;;;5089314;28;20716;-68
2022/12/09 02:25:08;;;;;;;70.88;26.52;;;-2.80;25.70;;;;;;5073415;28;20184;-69
2022/12/09 02:27:41;;;;;;;69.68;26.52;;;-2.80;25.40;;;;;;5089043;28;20322;-68
2022/12/09 02:30:22;;;;;;;72.68;29.70;;;-2.80;24.80;;;;;;5072265;28;20176;-68
2022/12/09 02:33:16;;;;;;;69.55;24.88;;;-2.80;24.50;;;;;;5073225;28;20238;-68
2022/12/09 02:35:49;;;;;;;69.05;26.25;;;-2.90;24.40;;;;;;5088276;28;20200;-68
2022/12/09 02:38:20;;;;;;;69.22;25.63;;;-2.90;24.30;;;;;;5073296;28;20697;-68
2022/12/09 02:40:58;;;;;;;71.32;31.23;;;-2.90;24.50;;;;;;5073263;28;20159;-68
2022/12/09 02:43:29;;;;;;;76.63;29.17;;;-2.90;24.60;;;;;;5073059;28;20177;-68
2022/12/09 02:45:57;;;;;;;77.85;31.92;;;-3.00;25.20;;;;;;5073134;28;20243;-68
2022/12/09 02:48:37;;;;;;;72.07;34.83;;;-3.00;26.10;;;;;;5088678;28;20178;-68
2022/12/09 02:51:08;;;;;;;73.90;31.45;;;-2.90;25.70;;;;;;5088728;28;20175;-69
2022/12/09 02:53:35;;;;;;;71.25;29.90;;;-2.90;25.80;;;;;;5072936;28;20160;-68
2022/12/09 02:56:03;;;;;;;74.65;28.88;;;-2.90;25.70;;;;;;5072769;28;20214;-68
2022/12/09 02:58:29;;;;;;;72.03;33.53;;;-2.80;25.60;;;;;;5073002;28;20204;-68
2022/12/09 03:00:55;;;;;;;72.77;30.60;;;-2.80;25.80;;;;;;5072883;28;20210;-68
2022/12/09 03:03:21;;;;;;;74.10;32.30;;;-2.80;25.60;;;;;;5088349;28;20177;-68
2022/12/09 03:05:56;;;;;;;73.18;33.67;;;-2.80;25.10;;;;;;5072673;28;20277;-67
2022/12/09 03:08:35;;;;;;;75.20;33.97;;;-2.70;25.00;;;;;;5072917;28;20450;-68
2022/12/09 03:11:20;;;;;;;74.35;32.95;;;-2.70;24.80;;;;;;5072125;28;20653;-68
2022/12/09 03:14:09;;;;;;;73.18;34.42;;;-2.70;24.70;;;;;;5088139;28;20191;-68
2022/12/09 03:16:39;;;;;;;71.32;27.40;;;-2.70;24.40;;;;;;5072552;28;20696;-69
2022/12/09 03:19:20;;;;;;;76.82;38.00;;;-2.80;24.50;;;;;;5073026;28;20780;-69
2022/12/09 03:21:48;;;;;;;73.30;28.52;;;-2.80;24.60;;;;;;5072515;28;20164;-68
2022/12/09 03:24:19;;;;;;;75.65;35.38;;;-2.80;25.20;;;;;;5072584;28;20177;-68
2022/12/09 03:26:47;;;;;;;75.20;33.17;;;-2.80;25.00;;;;;;5072440;28;20296;-68
2022/12/09 03:29:17;;;;;;;74.45;29.88;;;-2.90;25.00;;;;;;5072468;28;20191;-68
2022/12/09 03:31:45;;;;;;;75.97;34.17;;;-2.90;25.60;;;;;;5087934;28;20196;-68
2022/12/09 03:34:15;;;;;;;74.07;30.13;;;-3.00;26.40;;;;;;5072428;28;20183;-68
2022/12/09 03:36:43;;;;;;;78.20;35.92;;;-2.90;26.90;;;;;;5072128;28;20211;-69
2022/12/09 03:39:13;;;;;;;78.05;29.58;;;-3.00;27.00;;;;;;5072269;28;20259;-69
2022/12/09 03:41:45;;;;;;;82.97;43.75;;;-2.90;27.40;;;;;;5087790;28;20183;-69
2022/12/09 03:44:16;;;;;;;74.45;31.73;;;-2.90;27.40;;;;;;5072426;28;20265;-69
2022/12/09 03:46:42;;;;;;;82.35;35.90;;;-2.80;27.50;;;;;;5072230;28;20705;-68
2022/12/09 03:49:08;;;;;;;82.18;43.22;;;-2.80;27.50;;;;;;5072184;28;20646;-69
2022/12/09 03:51:38;;;;;;;87.97;48.05;;;-2.70;27.50;;;;;;5072046;28;20174;-69
2022/12/09 03:54:15;;;;;;;79.20;37.40;;;-2.70;27.50;;;;;;5072099;28;20204;-69
2022/12/09 03:56:44;;;;;;;84.25;42.92;;;-2.60;27.60;;;;;;5071967;28;20200;-69
2022/12/09 03:59:12;;;;;;;82.25;44.25;;;-2.60;27.60;;;;;;5071931;28;20169;-69
2022/12/09 04:01:40;;;;;;;82.32;39.90;;;-2.60;27.70;;;;;;5071790;28;20199;-69
2022/12/09 04:04:07;;;;;;;82.28;45.60;;;-2.50;27.60;;;;;;5087383;28;20615;-68
2022/12/09 04:06:32;;;;;;;74.53;33.10;;;-2.50;27.10;;;;;;5071929;28;20203;-68
2022/12/09 04:08:58;;;;;;;85.07;47.30;;;-2.50;27.40;;;;;;5087395;28;20574;-68
2022/12/09 04:11:24;;;;;;;81.60;50.40;;;-2.60;27.30;;;;;;5071969;28;20229;-68
2022/12/09 04:13:49;;;;;;;81.03;42.80;;;-2.50;27.30;;;;;;5071731;28;20210;-68
2022/12/09 04:16:15;;;;;;;79.27;38.90;;;-2.60;27.50;;;;;;5071828;28;20286;-68
2022/12/09 04:18:41;;;;;;;83.67;48.13;;;-2.60;27.60;;;;;;5071863;28;20201;-68
2022/12/09 04:21:08;;;;;;;83.50;45.22;;;-2.70;27.50;;;;;;5071802;28;20527;-68
2022/12/09 04:23:34;;;;;;;87.05;50.30;;;-2.60;28.00;;;;;;5072893;28;20188;-68
2022/12/09 04:26:00;;;;;;;84.53;51.92;;;-2.60;27.60;;;;;;5075730;28;20594;-68
2022/12/09 04:28:25;;;;;;;86.57;47.07;;;-2.60;27.10;;;;;;5075783;28;20184;-68
2022/12/09 04:30:51;;;;;;;85.13;52.40;;;-2.60;27.60;;;;;;5075771;28;20191;-68
2022/12/09 04:33:17;;;;;;;84.43;51.03;;;-2.60;27.60;;;;;;5075584;28;20185;-68
2022/12/09 04:35:42;;;;;;;80.30;40.97;;;-2.70;27.10;;;;;;5075566;28;20198;-68
2022/12/09 04:38:08;;;;;;;80.27;38.10;;;-2.70;27.50;;;;;;5075768;28;20177;-68
2022/12/09 04:40:33;;;;;;;83.33;36.37;;;-2.70;27.50;;;;;;5091281;28;20183;-68
2022/12/09 04:42:59;;;;;;;81.83;48.07;;;-2.60;27.60;;;;;;5091006;28;20318;-68
2022/12/09 04:45:24;;;;;;;83.03;50.83;;;-2.60;27.50;;;;;;5075518;28;20199;-68
2022/12/09 04:47:50;;;;;;;78.03;32.83;;;-2.60;27.00;;;;;;5075506;28;20175;-68
2022/12/09 04:50:16;;;;;;;85.47;48.53;;;-2.60;27.60;;;;;;5075415;28;20201;-68
2022/12/09 04:52:42;;;;;;;83.57;45.53;;;-2.50;27.70;;;;;;5075194;28;20216;-69
2022/12/09 04:55:08;;;;;;;89.07;54.65;;;-2.50;27.10;;;;;;5090760;28;20204;-68
2022/12/09 04:57:34;;;;;;;78.28;40.50;;;-2.50;27.60;;;;;;5075128;28;20262;-68
2022/12/09 05:00:00;;;;;;;77.80;37.47;;;-2.50;27.60;;;;;;5075232;28;20188;-68
2022/12/09 05:02:26;;;;;;;81.43;49.53;;;-2.40;27.70;;;;;;5090850;28;20176;-68
2022/12/09 05:04:51;;;;;;;83.67;48.53;;;-2.30;27.30;;;;;;5075013;28;21011;-69
2022/12/09 05:07:17;;;;;;;96.03;74.23;;;-2.40;27.40;;;;;;5090627;28;20186;-68
2022/12/09 05:09:42;;;;;;;83.07;42.93;;;-2.40;27.40;;;;;;5075006;28;20259;-68
2022/12/09 05:12:08;;;;;;;92.13;64.93;;;-2.30;26.80;;;;;;5074831;28;20176;-68
2022/12/09 05:14:34;;;;;;;83.33;49.00;;;-2.30;26.60;;;;;;5075059;28;20184;-68
2022/12/09 05:17:02;;;;;;;83.60;44.90;;;-2.30;26.40;;;;;;5074727;28;20196;-68
2022/12/09 05:19:28;;;;;;;86.43;50.70;;;-2.30;26.80;;;;;;5074735;28;20511;-68
2022/12/09 05:21:53;;;;;;;91.23;63.67;;;-2.20;26.80;;;;;;5074612;28;20222;-68
2022/12/09 05:24:19;;;;;;;86.03;55.47;;;-2.20;26.70;;;;;;5074766;28;20256;-68
2022/12/09 05:26:44;;;;;;;93.33;66.67;;;-2.20;26.00;;;;;;5090624;28;20265;-69
2022/12/09 05:29:10;;;;;;;83.80;41.63;;;-2.20;25.90;;;;;;5074636;28;20189;-68
2022/12/09 05:31:35;;;;;;;86.70;50.47;;;-2.10;26.70;;;;;;5074389;28;20640;-68
2022/12/09 05:34:01;;;;;;;93.43;69.77;;;-2.10;26.20;;;;;;5073904;28;20184;-69
2022/12/09 05:36:27;;;;;;;80.57;34.28;;;-2.10;26.10;;;;;;5074290;28;20200;-69
2022/12/09 05:38:54;;;;;;;86.60;63.00;;;-2.10;26.20;;;;;;5074464;28;20172;-69
2022/12/09 05:41:19;;;;;;;89.95;70.90;;;-2.00;25.80;;;;;;5074832;28;20172;-68
2022/12/09 05:43:45;;;;;;;91.60;72.63;;;-1.80;25.90;;;;;;5074161;28;20545;-69
2022/12/09 05:46:12;;;;;;;97.75;75.35;;;-1.70;25.60;;;;;;5074238;28;20687;-69
2022/12/09 05:48:38;;;;;;;83.10;50.85;;;-1.70;25.30;;;;;;5074317;28;20189;-68
2022/12/09 05:51:11;;;;;;;89.83;66.83;;;-1.60;24.40;;;;;;5074559;28;20580;-69
2022/12/09 05:53:37;;;;;;;89.45;59.80;;;-1.60;24.20;;;;;;5073895;28;20440;-69
2022/12/09 05:56:03;;;;;;;87.73;60.40;;;-1.50;23.20;;;;;;5089335;28;20282;-69
2022/12/09 05:58:28;;;;;;;90.43;69.40;;;-1.60;23.60;;;;;;5073944;28;20411;-68
2022/12/09 06:00:57;;;;;;;91.37;79.27;;;-1.60;23.70;;;;;;5074138;28;20182;-69
2022/12/09 06:03:23;;;;;;;100.05;86.47;;;-1.50;23.30;;;;;;5073633;28;20241;-68
2022/12/09 06:05:48;;;;;;;91.43;64.75;;;-1.50;23.80;;;;;;5089319;28;20200;-69
2022/12/09 06:08:14;;;;;;;87.03;67.33;;;-1.50;24.20;;;;;;5073852;28;20654;-68
2022/12/09 06:10:40;;;;;;;84.78;49.95;;;-1.40;24.10;;;;;;5073890;28;20196;-68
2022/12/09 06:13:07;;;;;;;92.65;77.30;;;-1.30;22.90;;;;;;5073661;28;20219;-69
2022/12/09 06:15:33;;;;;;;106.72;95.63;;;-1.20;22.70;;;;;;5073606;28;20218;-69
2022/12/09 06:17:59;;;;;;;101.28;87.72;;;-1.20;22.80;;;;;;5073794;28;20169;-69
2022/12/09 06:20:24;;;;;;;97.17;84.07;;;-1.10;22.80;;;;;;5089169;28;20594;-69
2022/12/09 06:22:50;;;;;;;87.73;65.50;;;-1.10;21.70;;;;;;5088951;28;20829;-68
2022/12/09 06:25:16;;;;;;;97.27;78.47;;;-1.10;21.80;;;;;;5073210;28;20551;-68
2022/12/09 06:27:41;;;;;;;98.00;87.80;;;-1.10;21.90;;;;;;5073893;28;20551;-68
2022/12/09 06:30:07;;;;;;;84.53;55.00;;;-1.10;21.70;;;;;;5076023;28;20197;-69
2022/12/09 06:32:33;;;;;;;89.03;54.35;;;-1.10;21.50;;;;;;5078561;28;20187;-69
2022/12/09 06:34:59;;;;;;;96.60;82.20;;;-1.00;20.70;;;;;;5078540;28;20264;-70
2022/12/09 06:37:24;;;;;;;98.67;79.13;;;-0.90;20.60;;;;;;5093712;28;20240;-69
2022/12/09 06:39:50;;;;;;;87.57;52.10;;;-1.00;20.90;;;;;;5079728;28;20423;-69
2022/12/09 06:42:16;;;;;;;105.47;94.60;;;-0.90;21.00;;;;;;5078521;28;20181;-69
2022/12/09 06:44:41;;;;;;;90.43;60.00;;;-0.80;21.10;;;;;;5077643;28;20173;-69
2022/12/09 06:47:07;;;;;;;87.90;70.87;;;-0.80;20.60;;;;;;5076855;28;20434;-68
2022/12/09 06:49:33;;;;;;;92.83;72.20;;;-0.80;20.80;;;;;;5081600;28;20200;-70
2022/12/09 06:51:59;;;;;;;87.40;68.33;;;-0.70;20.10;;;;;;5078820;28;20184;-68
2022/12/09 06:54:24;;;;;;;95.23;66.10;;;-0.80;20.60;;;;;;5078097;28;20262;-69
2022/12/09 06:56:50;;;;;;;88.60;67.30;;;-0.80;20.60;;;;;;5077755;28;20211;-68
2022/12/09 06:59:16;;;;;;;94.67;59.13;;;-0.80;20.30;;;;;;5077051;28;20928;-68
2022/12/09 07:01:42;;;;;;;100.43;89.73;;;-0.90;20.50;;;;;;5077412;28;20173;-69
2022/12/09 07:04:12;;;;;;;94.05;62.20;;;-0.90;20.70;;;;;;5093903;28;20426;-68
2022/12/09 07:06:40;;;;;;;100.47;72.45;;;-0.90;20.90;;;;;;5078280;28;20685;-69
2022/12/09 07:09:11;;;;;;;90.05;63.28;;;-0.80;20.80;;;;;;5077948;28;20177;-71
2022/12/09 07:11:37;;;;;;;89.43;53.80;;;-0.90;21.10;;;;;;5077264;28;20168;-69
2022/12/09 07:14:03;;;;;;;90.15;66.72;;;-0.90;20.90;;;;;;5094286;28;20717;-68
2022/12/09 07:16:29;;;;;;;92.47;67.97;;;-0.90;20.50;;;;;;5078273;28;20233;-69
2022/12/09 07:18:55;;;;;;;90.25;49.60;;;-0.90;20.90;;;;;;5094971;28;20512;-69
2022/12/09 07:21:22;;;;;;;90.47;70.30;;;-0.80;20.60;;;;;;5081180;28;20203;-68
2022/12/09 07:23:48;;;;;;;94.43;63.60;;;-0.80;20.60;;;;;;5081062;28;20172;-68
2022/12/09 07:26:14;;;;;;;82.27;40.50;;;-0.70;20.60;;;;;;5081138;28;20267;-69
2022/12/09 07:28:41;;;;;;;93.70;79.38;;;-0.60;20.60;;;;;;5081489;28;20195;-69
2022/12/09 07:31:19;;;;;;;87.00;51.38;;;-0.60;20.90;;;;;;5080316;28;20181;-68
2022/12/09 07:33:45;;;;;;;88.15;65.40;;;-0.60;20.00;;;;;;5083814;28;20654;-69
2022/12/09 07:36:10;;;;;;;85.33;48.87;;;-0.60;20.10;;;;;;5080442;28;20222;-69
2022/12/09 07:38:36;;;;;;;88.33;56.50;;;-0.50;20.00;;;;;;5081570;28;20176;-68
2022/12/09 07:41:06;;;;;;;87.80;62.10;;;-0.40;19.80;;;;;;5078209;28;20170;-68
2022/12/09 07:43:35;;;;;;;90.97;57.00;;;-0.50;19.70;;;;;;5094030;28;20679;-68
2022/12/09 07:46:05;;;;;;;92.03;52.90;;;-0.60;20.20;;;;;;5078982;28;20205;-70
2022/12/09 07:48:30;;;;;;;79.15;43.58;;;-0.40;20.00;;;;;;5079551;28;20244;-69
2022/12/09 07:51:00;;;;;;;87.17;42.60;;;-0.40;19.50;;;;;;5096831;28;20212;-67
2022/12/09 07:53:27;;;;;;;95.65;82.43;;;-0.30;19.50;;;;;;5080022;28;20177;-69
2022/12/09 07:55:52;;;;;;;94.35;73.65;;;-0.30;19.10;;;;;;5078958;28;20563;-69
2022/12/09 07:58:18;;;;;;;133.13;97.87;;;-0.30;19.10;;;;;;5079418;28;20177;-69
2022/12/09 08:00:43;;;;;;;95.03;81.20;;;-0.20;19.10;;;;;;5078508;28;20258;-68
2022/12/09 08:03:13;;;;;;;85.20;57.73;;;-0.30;19.70;;;;;;5078467;28;20172;-70
2022/12/09 08:05:49;;;;;;;93.32;72.85;;;-0.20;18.90;;;;;;5095539;28;20254;-68
2022/12/09 08:08:15;;;;;;;93.47;65.07;;;-0.10;18.60;;;;;;5097180;28;20244;-68
2022/12/09 08:10:41;;;;;;;92.53;63.93;;;-0.20;18.90;;;;;;5078414;28;20180;-68
2022/12/09 08:13:06;;;;;;;130.32;87.82;;;-0.10;18.70;;;;;;5077698;28;20675;-69
2022/12/09 08:15:32;;;;;;;148.20;74.50;;;-0.10;18.80;;;;;;5094209;28;20220;-69
2022/12/09 08:17:58;;;;;;;151.07;91.77;;;0.00;18.50;;;;;;5095111;28;20202;-68
2022/12/09 08:20:23;;;;;;;97.77;67.73;;;0.10;18.70;;;;;;5080102;28;20201;-68
2022/12/09 08:22:49;;;;;;;90.83;69.67;;;0.20;18.20;;;;;;5094957;28;20177;-69
2022/12/09 08:25:15;;;;;;;87.33;60.37;;;0.30;17.90;;;;;;5079258;28;20243;-69
2022/12/09 08:27:40;;;;;;;91.00;48.03;;;0.40;17.60;;;;;;5095038;28;20206;-69
2022/12/09 08:30:06;;;;;;;83.77;44.67;;;0.50;17.80;;;;;;5078452;28;20202;-69
2022/12/09 08:32:32;;;;;;;82.85;44.40;;;0.40;17.20;;;;;;5079942;28;20178;-69
2022/12/09 08:34:57;;;;;;;92.07;61.33;;;0.40;17.20;;;;;;5080720;28;20204;-69
2022/12/09 08:37:23;;;;;;;77.10;32.70;;;0.60;17.30;;;;;;5097300;28;20247;-69
2022/12/09 08:39:49;;;;;;;87.43;43.37;;;0.60;17.30;;;;;;5081302;28;20193;-69
2022/12/09 08:42:14;;;;;;;79.53;42.53;;;0.60;17.30;;;;;;5081254;28;20174;-69
2022/12/09 08:44:40;;;;;;;84.90;42.53;;;0.70;16.90;;;;;;5081019;28;20197;-69
2022/12/09 08:47:05;;;;;;;83.33;50.17;;;0.70;16.60;;;;;;5081682;28;20197;-68
2022/12/09 08:49:31;;;;;;;78.03;37.10;;;0.80;16.90;;;;;;5079466;28;20189;-69
2022/12/09 08:51:57;;;;;;;86.10;44.27;;;0.90;16.40;;;;;;5077849;28;20181;-69
2022/12/09 08:54:22;;;;;;;90.60;57.47;;;1.20;16.10;;;;;;5078365;28;20475;-69
2022/12/09 08:56:56;;;;;;;90.03;49.60;;;1.60;15.70;;;;;;5092825;28;20206;-70
2022/12/09 08:59:22;;;;;;;100.20;83.57;;;1.70;14.60;;;;;;5080179;28;20189;-68
2022/12/09 09:01:48;;;;;;;80.88;45.90;;;1.90;14.50;;;;;;5079837;28;20163;-68
2022/12/09 09:04:17;;;;;;;229.23;210.30;;;2.00;14.00;;;;;;5081181;28;20178;-68
2022/12/09 09:06:45;;;;;;;83.35;52.00;;;2.00;13.60;;;;;;5081270;28;20203;-68
2022/12/09 09:09:12;;;;;;;95.28;76.68;;;2.20;12.30;;;;;;5082120;28;20189;-68
2022/12/09 09:11:39;;;;;;;92.25;64.60;;;2.40;12.50;;;;;;5084419;28;20177;-69
2022/12/09 09:14:06;;;;;;;206.85;185.05;;;2.50;12.50;;;;;;5085717;28;20198;-68
2022/12/09 09:16:32;;;;;;;102.75;91.05;;;2.70;11.80;;;;;;5086065;28;20203;-69
2022/12/09 09:18:58;;;;;;;82.07;60.78;;;2.90;11.20;;;;;;5086282;28;20186;-68
2022/12/09 09:21:26;;;;;;;87.57;69.57;;;3.10;10.40;;;;;;5085465;28;20178;-69
2022/12/09 09:23:51;;;;;;;89.45;64.00;;;3.10;10.40;;;;;;5086267;28;20171;-69
2022/12/09 09:26:24;;;;;;;103.60;90.30;;;3.20;10.50;;;;;;5084980;28;20245;-69
2022/12/09 09:28:50;;;;;;;95.57;84.03;;;2.80;10.20;;;;;;5086857;28;20425;-69
2022/12/09 09:31:18;;;;;;;92.47;81.80;;;3.00;10.30;;;;;;5102411;28;20241;-69
2022/12/09 09:33:44;;;;;;;91.30;77.25;;;3.20;9.80;;;;;;5101782;28;20182;-70
2022/12/09 09:36:19;;;;;;;143.90;131.50;;;3.40;9.10;;;;;;5086373;28;20216;-70
2022/12/09 09:38:46;;;;;;;102.95;90.22;;;3.50;9.20;;;;;;5086398;28;20161;-68
2022/12/09 09:41:51;;;;;;;168.30;155.05;;;3.50;9.40;;;;;;5087047;28;20509;-70
2022/12/09 09:44:33;;;;;;;122.88;111.30;;;3.30;9.00;;;;;;5101900;28;20181;-68
2022/12/09 09:47:01;;;;;;;234.65;218.02;;;3.10;9.80;;;;;;5101422;28;20206;-69
2022/12/09 09:49:52;;;;;;;136.20;124.10;;;2.90;10.30;;;;;;5086504;28;20185;-68
2022/12/09 09:52:21;;;;;;;98.15;83.22;;;2.70;10.10;;;;;;5086068;28;20171;-68
2022/12/09 09:54:47;;;;;;;87.97;63.13;;;2.70;10.10;;;;;;5086664;28;20180;-68
2022/12/09 09:57:33;;;;;;;132.00;119.83;;;2.80;10.20;;;;;;5087153;28;20216;-70
2022/12/09 10:00:19;;;;;;;105.95;95.25;;;2.80;10.20;;;;;;5087066;28;20187;-68
2022/12/09 10:03:07;;;;;;;247.50;230.52;;;3.00;10.30;;;;;;5086073;28;20531;-69
2022/12/09 10:05:55;;;;;;;160.95;147.32;;;2.80;10.20;;;;;;5086401;28;20289;-69
2022/12/09 10:08:54;;;;;;;308.27;288.52;;;2.60;10.10;;;;;;5084804;28;20178;-69
2022/12/09 10:11:27;;;;;;;97.57;79.10;;;2.20;11.40;;;;;;5086505;28;20202;-68
2022/12/09 10:13:57;;;;;;;125.38;112.65;;;2.10;12.50;;;;;;5086298;28;20463;-69
2022/12/09 10:16:29;;;;;;;207.10;191.07;;;2.10;11.70;;;;;;5085667;28;20205;-68
2022/12/09 10:19:07;;;;;;;153.77;140.15;;;2.10;12.30;;;;;;5086686;28;20181;-68
2022/12/09 10:21:38;;;;;;;114.55;98.80;;;2.10;12.30;;;;;;5085979;28;20173;-68
2022/12/09 10:24:26;;;;;;;119.05;103.95;;;2.10;12.20;;;;;;5086102;28;20187;-68
2022/12/09 10:27:12;;;;;;;116.35;94.38;;;2.40;12.10;;;;;;5085925;28;20216;-67
2022/12/09 10:29:45;;;;;;;117.47;105.43;;;2.30;11.90;;;;;;5085064;28;20179;-70
2022/12/09 10:32:18;;;;;;;94.63;76.88;;;2.30;12.80;;;;;;5085619;28;20178;-69
2022/12/09 10:34:45;;;;;;;109.25;95.43;;;2.40;12.40;;;;;;5084912;28;20184;-69
2022/12/09 10:37:26;;;;;;;119.10;106.70;;;2.50;12.40;;;;;;5084805;28;20220;-69
2022/12/09 10:40:41;;;;;;;101.65;79.50;;;2.50;12.30;;;;;;5086170;28;20241;-68
2022/12/09 10:43:35;;;;;;;95.38;63.22;;;2.40;12.40;;;;;;5084714;28;20211;-68
2022/12/09 10:46:18;;;;;;;130.73;115.72;;;2.30;12.10;;;;;;5085084;28;20229;-68
2022/12/09 10:48:46;;;;;;;160.18;146.57;;;2.30;12.70;;;;;;5100603;28;20190;-68
2022/12/09 10:51:14;;;;;;;118.72;105.95;;;2.40;12.70;;;;;;5100678;28;20677;-68
2022/12/09 10:53:50;;;;;;;126.85;114.47;;;2.50;12.30;;;;;;5085384;28;20663;-68
2022/12/09 10:56:26;;;;;;;106.65;93.35;;;2.50;12.30;;;;;;5083295;28;20217;-69
2022/12/09 10:59:20;;;;;;;145.10;120.65;;;2.50;12.20;;;;;;5084863;28;20201;-69
2022/12/09 11:01:55;;;;;;;139.50;97.70;;;2.30;12.20;;;;;;5081876;28;20574;-68
2022/12/09 11:04:25;;;;;;;357.65;335.92;;;2.20;12.60;;;;;;5084425;28;20229;-69
2022/12/09 11:06:53;;;;;;;117.68;105.70;;;2.30;12.30;;;;;;5084409;28;20253;-71
2022/12/09 11:09:26;;;;;;;97.38;71.07;;;2.40;12.10;;;;;;5085101;28;20267;-69
2022/12/09 11:11:52;;;;;;;105.40;91.90;;;2.30;12.50;;;;;;5084702;28;20200;-70
2022/12/09 11:14:21;;;;;;;127.55;114.90;;;2.40;12.60;;;;;;5084080;28;20256;-69
2022/12/09 11:16:59;;;;;;;132.90;119.97;;;2.50;11.40;;;;;;5084564;28;20202;-70
2022/12/09 11:19:30;;;;;;;101.55;78.15;;;2.40;11.50;;;;;;5099363;28;20195;-69
2022/12/09 11:22:40;;;;;;;109.47;98.38;;;2.30;11.70;;;;;;5082871;28;20244;-70
2022/12/09 11:27:34;;;;;;;161.38;147.38;;;2.40;11.90;;;;;;5093071;22;20624;-71
2022/12/09 11:30:13;;;;;;;118.23;106.47;;;2.50;11.50;;;;;;5072264;28;20176;-68
2022/12/09 11:33:13;;;;;;;90.80;61.90;;;2.50;11.30;;;;;;5071660;28;20182;-70
2022/12/09 11:35:42;;;;;;;94.00;78.22;;;2.50;11.50;;;;;;5067799;28;20226;-69
2022/12/09 11:38:29;;;;;;;92.95;72.47;;;2.60;10.90;;;;;;5088025;28;20208;-69
2022/12/09 11:41:10;;;;;;;177.25;163.05;;;2.50;11.40;;;;;;5072206;28;20247;-69
2022/12/09 11:43:52;;;;;;;112.90;101.82;;;2.60;11.10;;;;;;5071809;28;20172;-69
2022/12/09 11:46:25;;;;;;;148.85;136.15;;;2.70;10.40;;;;;;5072048;28;20187;-69
2022/12/09 11:49:16;;;;;;;126.55;114.90;;;2.70;10.20;;;;;;5072318;28;20200;-69
2022/12/09 11:52:04;;;;;;;138.48;125.82;;;2.80;10.60;;;;;;5070622;28;20242;-69
2022/12/09 11:54:42;;;;;;;131.43;119.18;;;2.60;10.90;;;;;;5072011;28;20184;-68
2022/12/09 11:57:23;;;;;;;120.10;108.70;;;2.70;10.90;;;;;;5071840;28;20590;-69
2022/12/09 11:59:55;;;;;;;125.97;113.28;;;2.60;11.10;;;;;;5071862;28;20172;-69
2022/12/09 12:02:52;;;;;;;86.10;55.22;;;2.60;10.90;;;;;;5087093;28;20213;-69
2022/12/09 12:05:49;;;;;;;100.18;88.55;;;2.60;11.30;;;;;;5061020;28;20220;-70
2022/12/09 12:08:24;;;;;;;126.28;111.60;;;2.30;11.60;;;;;;5066559;28;20190;-69
2022/12/09 12:11:06;;;;;;;247.77;230.75;;;2.20;12.40;;;;;;5087153;28;20186;-69
2022/12/09 12:13:43;;;;;;;86.68;53.03;;;2.20;12.40;;;;;;5071487;28;20174;-69
2022/12/09 12:16:27;;;;;;;122.10;109.82;;;2.30;13.20;;;;;;5071679;28;20216;-69
2022/12/09 12:19:18;;;;;;;138.57;125.65;;;2.50;12.60;;;;;;5071468;28;20641;-69
2022/12/09 12:21:49;;;;;;;100.03;80.45;;;2.40;11.90;;;;;;5071365;28;20674;-69
2022/12/09 12:24:36;;;;;;;97.75;65.40;;;2.30;12.60;;;;;;5071627;28;20170;-69
2022/12/09 12:27:07;;;;;;;118.20;81.20;;;2.30;12.80;;;;;;5071259;28;20225;-69
2022/12/09 12:29:50;;;;;;;99.07;85.35;;;2.30;12.80;;;;;;5071446;28;20174;-70
2022/12/09 12:32:37;;;;;;;104.70;83.28;;;2.40;12.40;;;;;;5071652;28;20175;-69
2022/12/09 12:35:36;;;;;;;90.10;60.10;;;2.10;13.10;;;;;;5071486;28;20173;-69
2022/12/09 12:38:22;;;;;;;90.82;58.30;;;2.20;13.50;;;;;;5071464;28;20273;-69
2022/12/09 12:41:07;;;;;;;94.43;66.25;;;2.20;13.10;;;;;;5070134;28;20174;-69
2022/12/09 12:46:53;;;;;;;91.93;57.58;;;1.80;13.80;;;;;;5075302;28;20200;-70
2022/12/09 12:49:46;;;;;;;96.05;59.65;;;1.90;13.90;;;;;;5075402;28;20170;-70
2022/12/09 12:52:25;;;;;;;108.82;96.60;;;1.90;13.90;;;;;;5075042;28;20733;-70